Time;durP1;ratioP1;P1;durP2;ratioP2;P2;SDS_P1;SDS_P2;PMS_P1;PMS_P2;Temp;Humidity;BMP_temperature;BMP_pressure;BME280_temperature;BME280_humidity;BME280_pressure;Samples;Min_cycle;Max_cycle;Signal;HPM_P1;HPM_P2
2021/12/29 00:00:27;;;;;;;12.38;1.55;;;;;;;-141.50;100.00;63355.56;5092241;28;20075;-81
2021/12/29 00:02:58;;;;;;;12.77;1.88;;;;;;;-141.50;100.00;63355.56;5091987;28;20124;-81
2021/12/29 00:05:25;;;;;;;7.75;1.17;;;;;;;-141.50;100.00;63355.56;5092465;28;20078;-79
2021/12/29 00:07:51;;;;;;;9.63;1.52;;;;;;;-141.50;100.00;63355.56;5091316;28;20048;-80
2021/12/29 00:10:19;;;;;;;8.82;1.52;;;;;;;-141.50;100.00;63355.56;5092275;28;20457;-78
2021/12/29 00:12:51;;;;;;;5.10;1.25;;;;;;;-141.50;100.00;63355.56;5094195;28;20040;-80
2021/12/29 00:15:21;;;;;;;7.07;1.20;;;;;;;-141.50;100.00;63355.56;5091927;28;20109;-79
2021/12/29 00:17:47;;;;;;;5.50;1.02;;;;;;;-141.50;100.00;63355.56;5090990;28;20085;-80
2021/12/29 00:20:16;;;;;;;7.25;0.95;;;;;;;-141.50;100.00;63355.56;5091621;28;20052;-80
2021/12/29 00:22:43;;;;;;;8.75;1.10;;;;;;;-141.50;100.00;63355.56;5093625;28;20055;-79
2021/12/29 00:25:10;;;;;;;2.90;0.75;;;;;;;-141.50;100.00;63355.56;5091400;28;20048;-78
2021/12/29 00:27:37;;;;;;;6.05;1.08;;;;;;;-141.50;100.00;63355.56;5092311;28;20440;-80
2021/12/29 00:30:05;;;;;;;6.57;0.80;;;;;;;-141.50;100.00;63355.56;5102588;28;20052;-78
2021/12/29 00:32:32;;;;;;;7.20;0.95;;;;;;;-141.50;100.00;63355.56;5097913;28;20055;-81
2021/12/29 00:34:59;;;;;;;5.35;0.75;;;;;;;-141.50;100.00;63355.56;5094243;28;20044;-81
2021/12/29 00:37:25;;;;;;;2.47;0.73;;;;;;;-141.50;100.00;63355.56;5095994;28;20060;-80
2021/12/29 00:39:52;;;;;;;6.05;0.85;;;;;;;-141.50;100.00;63355.56;5093057;28;20052;-81
2021/12/29 00:42:19;;;;;;;2.35;0.52;;;;;;;-141.50;100.00;63355.56;5091956;28;20066;-82
2021/12/29 00:44:46;;;;;;;3.42;0.93;;;;;;;-141.50;100.00;63355.56;5091634;28;20043;-81
2021/12/29 00:47:14;;;;;;;5.03;0.90;;;;;;;-141.50;100.00;63355.56;5091565;28;20048;-80
2021/12/29 00:49:41;;;;;;;1.77;0.60;;;;;;;-141.50;100.00;63355.56;5093327;28;20052;-80
2021/12/29 00:52:09;;;;;;;5.65;0.93;;;;;;;-141.50;100.00;63355.56;5091937;28;20052;-82
2021/12/29 00:54:38;;;;;;;4.97;0.88;;;;;;;-141.50;100.00;63355.56;5092648;28;20074;-81
2021/12/29 00:57:15;;;;;;;1.23;0.43;;;;;;;-141.50;100.00;63355.56;5093047;28;20770;-80
2021/12/29 00:59:45;;;;;;;3.80;0.60;;;;;;;-141.50;100.00;63355.56;5091483;28;20051;-81
2021/12/29 01:02:12;;;;;;;2.80;0.70;;;;;;;-141.50;100.00;63355.56;5092464;28;20079;-81
2021/12/29 01:04:38;;;;;;;3.53;0.60;;;;;;;-141.50;100.00;63355.56;5094109;28;20076;-81
2021/12/29 01:07:05;;;;;;;1.75;0.50;;;;;;;-141.50;100.00;63355.56;5095066;28;20491;-81
2021/12/29 01:09:32;;;;;;;2.47;0.70;;;;;;;-141.50;100.00;63355.56;5093103;28;20078;-81
2021/12/29 01:11:59;;;;;;;1.95;0.57;;;;;;;-141.50;100.00;63355.56;5092790;28;20044;-81
2021/12/29 01:14:30;;;;;;;1.50;0.50;;;;;;;-141.50;100.00;63355.56;5091863;28;20048;-82
2021/12/29 01:16:56;;;;;;;3.58;0.60;;;;;;;-141.50;100.00;63355.56;5096192;28;20111;-80
2021/12/29 01:19:29;;;;;;;5.45;1.25;;;;;;;-141.50;100.00;63355.56;5094856;28;20048;-80
2021/12/29 01:21:58;;;;;;;2.83;0.55;;;;;;;-141.50;100.00;63355.56;5095641;28;20048;-80
2021/12/29 01:24:27;;;;;;;1.33;0.43;;;;;;;-141.50;100.00;63355.56;5092494;28;20048;-79
2021/12/29 01:26:55;;;;;;;1.92;0.57;;;;;;;-141.50;100.00;63355.56;5086750;28;20056;-81
2021/12/29 01:29:28;;;;;;;1.02;0.47;;;;;;;-141.50;100.00;63355.56;5080804;28;20052;-81
2021/12/29 01:31:56;;;;;;;1.63;0.50;;;;;;;-141.50;100.00;63355.56;5086625;28;20052;-80
2021/12/29 01:34:24;;;;;;;3.63;0.65;;;;;;;-141.50;100.00;63355.56;5088064;28;20072;-80
2021/12/29 01:36:50;;;;;;;1.92;0.50;;;;;;;-141.50;100.00;63355.56;5085008;28;20052;-80
2021/12/29 01:39:18;;;;;;;1.02;0.45;;;;;;;-141.50;100.00;63355.56;5088585;28;20083;-80
2021/12/29 01:41:47;;;;;;;2.60;0.40;;;;;;;-141.50;100.00;63355.56;5081254;28;20048;-80
2021/12/29 01:44:16;;;;;;;3.60;0.50;;;;;;;-141.50;100.00;63355.56;5081125;28;20052;-80
2021/12/29 01:46:46;;;;;;;5.57;0.80;;;;;;;-141.50;100.00;63355.56;5081243;28;20114;-80
2021/12/29 01:49:13;;;;;;;1.45;0.47;;;;;;;-141.50;100.00;63355.56;5082601;28;20048;-79
2021/12/29 01:51:48;;;;;;;1.98;0.50;;;;;;;-141.50;100.00;63355.56;5090931;28;20052;-80
2021/12/29 01:54:25;;;;;;;1.83;0.43;;;;;;;-141.50;100.00;63355.56;5096855;28;20145;-80
2021/12/29 01:56:55;;;;;;;3.05;0.52;;;;;;;-141.50;100.00;63355.56;5096887;28;20516;-82
2021/12/29 01:59:23;;;;;;;2.72;0.77;;;;;;;-141.50;100.00;63355.56;5095917;28;20052;-82
2021/12/29 02:01:50;;;;;;;2.90;0.73;;;;;;;-141.50;100.00;63355.56;5095785;28;20044;-81
2021/12/29 02:04:18;;;;;;;1.95;0.52;;;;;;;-141.50;100.00;63355.56;5113523;28;20119;-82
2021/12/29 02:06:46;;;;;;;2.90;0.60;;;;;;;-141.50;100.00;63355.56;5123198;28;20073;-83
2021/12/29 02:09:12;;;;;;;4.95;1.08;;;;;;;-141.50;100.00;63355.56;5138830;28;20035;-83
2021/12/29 02:11:42;;;;;;;3.38;0.65;;;;;;;-141.50;100.00;63355.56;5136917;28;20040;-80
2021/12/29 02:14:09;;;;;;;3.33;0.60;;;;;;;-141.50;100.00;63355.56;5116405;28;20048;-80
2021/12/29 02:16:36;;;;;;;5.32;0.80;;;;;;;-141.50;100.00;63355.56;5116061;28;20074;-81
2021/12/29 02:19:06;;;;;;;4.05;0.80;;;;;;;-141.50;100.00;63355.56;5115024;28;20047;-80
2021/12/29 02:21:33;;;;;;;3.03;0.75;;;;;;;-141.50;100.00;63355.56;5085176;28;20707;-80
2021/12/29 02:26:30;;;;;;;4.18;0.88;;;;;;;-141.50;100.00;63355.56;5081494;28;20049;-79
2021/12/29 02:28:57;;;;;;;4.85;0.85;;;;;;;-141.50;100.00;63355.56;5088689;28;20093;-80
2021/12/29 02:31:24;;;;;;;3.50;0.80;;;;;;;-141.50;100.00;63355.56;5095960;28;20249;-80
2021/12/29 02:33:52;;;;;;;3.50;0.70;;;;;;;-141.50;100.00;63355.56;5096067;28;20050;-81
2021/12/29 02:36:20;;;;;;;4.53;0.90;;;;;;;-141.50;100.00;63355.56;5096029;28;20549;-81
2021/12/29 02:38:51;;;;;;;3.58;0.85;;;;;;;-141.50;100.00;63355.56;5095406;28;20135;-81
2021/12/29 02:41:18;;;;;;;3.28;0.63;;;;;;;-141.50;100.00;63355.56;5095651;28;20101;-80
2021/12/29 02:43:46;;;;;;;2.95;0.80;;;;;;;-141.50;100.00;63355.56;5092625;28;20048;-81
2021/12/29 02:46:16;;;;;;;3.15;0.80;;;;;;;-141.50;100.00;63355.56;5091848;28;20056;-80
2021/12/29 02:48:52;;;;;;;4.68;0.70;;;;;;;-141.50;100.00;63355.56;5091540;28;20055;-80
2021/12/29 02:51:19;;;;;;;8.88;1.00;;;;;;;-141.50;100.00;63355.56;5093403;28;20048;-80
2021/12/29 02:53:46;;;;;;;4.25;1.00;;;;;;;-141.50;100.00;63355.56;5092947;28;20443;-83
2021/12/29 02:56:12;;;;;;;3.80;0.80;;;;;;;-141.50;100.00;63355.56;5093176;28;20093;-81
2021/12/29 02:58:39;;;;;;;6.22;0.80;;;;;;;-141.50;100.00;63355.56;5075035;28;20071;-82
2021/12/29 03:01:10;;;;;;;2.38;0.75;;;;;;;-141.50;100.00;63355.56;5072643;28;20060;-80
2021/12/29 03:03:37;;;;;;;4.75;0.80;;;;;;;-141.50;100.00;63355.56;5072914;28;20044;-82
2021/12/29 03:06:06;;;;;;;5.38;1.05;;;;;;;-141.50;100.00;63355.56;5073180;28;20520;-80
2021/12/29 03:08:33;;;;;;;5.18;1.23;;;;;;;-141.50;100.00;63355.56;5073967;28;20056;-82
2021/12/29 03:11:00;;;;;;;3.72;0.93;;;;;;;-141.50;100.00;63355.56;5074802;28;20090;-82
2021/12/29 03:13:29;;;;;;;4.00;1.05;;;;;;;-141.50;100.00;63355.56;5073107;28;20102;-82
2021/12/29 03:15:56;;;;;;;4.70;1.10;;;;;;;-141.50;100.00;63355.56;5072282;28;20113;-82
2021/12/29 03:18:23;;;;;;;3.25;1.10;;;;;;;-141.50;100.00;63355.56;5073548;28;20048;-81
2021/12/29 03:20:50;;;;;;;2.05;0.88;;;;;;;-141.50;100.00;63355.56;5074462;28;20140;-82
2021/12/29 03:23:17;;;;;;;3.42;0.80;;;;;;;-141.50;100.00;63355.56;5074141;28;20071;-83
2021/12/29 03:25:47;;;;;;;5.18;1.02;;;;;;;-141.50;100.00;63355.56;5074010;28;20049;-82
2021/12/29 03:28:20;;;;;;;4.57;0.90;;;;;;;-141.50;100.00;63355.56;5073073;28;20106;-80
2021/12/29 03:30:50;;;;;;;3.97;1.00;;;;;;;-141.50;100.00;63355.56;5076545;28;20060;-83
2021/12/29 03:33:18;;;;;;;4.80;1.10;;;;;;;-141.50;100.00;63355.56;5074315;28;20094;-82
2021/12/29 03:35:47;;;;;;;7.07;1.30;;;;;;;-141.50;100.00;63355.56;5077177;28;20052;-82
2021/12/29 03:38:17;;;;;;;4.47;1.08;;;;;;;-141.50;100.00;63355.56;5074314;28;20044;-79
2021/12/29 03:40:45;;;;;;;6.35;1.10;;;;;;;-141.50;100.00;63355.56;5074529;28;20685;-81
2021/12/29 03:43:12;;;;;;;2.63;1.00;;;;;;;-141.50;100.00;63355.56;5076519;28;20087;-81
2021/12/29 03:45:41;;;;;;;7.32;1.20;;;;;;;-141.50;100.00;63355.56;5073969;28;20044;-81
2021/12/29 03:48:09;;;;;;;6.90;1.02;;;;;;;-141.50;100.00;63355.56;5071667;28;20079;-80
2021/12/29 03:50:36;;;;;;;4.97;0.90;;;;;;;-141.50;100.00;63355.56;5071644;28;20063;-81
2021/12/29 03:53:04;;;;;;;5.70;1.00;;;;;;;-141.50;100.00;63355.56;5072193;28;20083;-81
2021/12/29 03:55:35;;;;;;;5.88;0.95;;;;;;;-141.50;100.00;63355.56;5072541;28;20416;-83
2021/12/29 03:58:02;;;;;;;7.72;1.38;;;;;;;-141.50;100.00;63355.56;5074090;28;20118;-81
2021/12/29 04:00:29;;;;;;;5.25;0.93;;;;;;;-141.50;100.00;63355.56;5075013;28;20044;-82
2021/12/29 04:02:55;;;;;;;7.10;1.20;;;;;;;-141.50;100.00;63355.56;5078603;28;20044;-81
2021/12/29 04:05:23;;;;;;;4.90;0.98;;;;;;;-141.50;100.00;63355.56;5081952;28;20105;-79
2021/12/29 04:07:53;;;;;;;4.60;1.00;;;;;;;-141.50;100.00;63355.56;5074304;28;20049;-81
2021/12/29 04:10:20;;;;;;;3.33;1.00;;;;;;;-141.50;100.00;63355.56;5074850;28;20102;-79
2021/12/29 04:12:48;;;;;;;2.88;0.80;;;;;;;-141.50;100.00;63355.56;5074937;28;20094;-84
2021/12/29 04:15:19;;;;;;;3.28;0.88;;;;;;;-141.50;100.00;63355.56;5076439;28;20049;-81
2021/12/29 04:17:48;;;;;;;2.20;0.55;;;;;;;-141.50;100.00;63355.56;5074361;28;20070;-82
2021/12/29 04:23:07;;;;;;;5.38;0.80;;;;;;;-141.50;100.00;63355.56;5074913;28;20193;-81
2021/12/29 04:25:36;;;;;;;5.72;0.90;;;;;;;-141.50;100.00;63355.56;5075192;28;20045;-82
2021/12/29 04:28:09;;;;;;;3.17;1.05;;;;;;;-141.50;100.00;63355.56;5075401;28;20746;-83
2021/12/29 04:30:37;;;;;;;4.63;0.90;;;;;;;-141.50;100.00;63355.56;5072386;28;20052;-80
2021/12/29 04:33:04;;;;;;;3.25;0.80;;;;;;;-141.50;100.00;63355.56;5072388;28;20139;-81
2021/12/29 04:35:31;;;;;;;5.70;0.85;;;;;;;-141.50;100.00;63355.56;5088985;28;20051;-82
2021/12/29 04:37:58;;;;;;;3.65;0.82;;;;;;;-141.50;100.00;63355.56;5090464;28;20056;-81
2021/12/29 04:40:25;;;;;;;4.03;0.98;;;;;;;-141.50;100.00;63355.56;5070225;28;20055;-79
2021/12/29 04:42:51;;;;;;;4.65;0.90;;;;;;;-141.50;100.00;63355.56;5090065;28;20048;-80
2021/12/29 04:45:18;;;;;;;3.03;0.85;;;;;;;-141.50;100.00;63355.56;5090013;28;20048;-79
2021/12/29 04:47:46;;;;;;;3.28;1.00;;;;;;;-141.50;100.00;63355.56;5091595;28;20079;-81
2021/12/29 04:50:25;;;;;;;2.80;0.80;;;;;;;-141.50;100.00;63355.56;5089767;28;20048;-81
2021/12/29 04:52:54;;;;;;;6.28;1.10;;;;;;;-141.50;100.00;63355.56;5092324;28;20140;-80
2021/12/29 04:55:21;;;;;;;2.95;0.93;;;;;;;-141.50;100.00;63355.56;5092137;28;20048;-81
2021/12/29 04:57:48;;;;;;;4.20;1.00;;;;;;;-141.50;100.00;63355.56;5092356;28;20082;-82
2021/12/29 05:00:15;;;;;;;3.13;0.98;;;;;;;-141.50;100.00;63355.56;5090861;28;20105;-82
2021/12/29 05:02:42;;;;;;;3.80;1.08;;;;;;;-141.50;100.00;63355.56;5091505;28;20059;-82
2021/12/29 05:05:38;;;;;;;3.78;1.10;;;;;;;-141.50;100.00;63355.56;5095672;28;20142;-80
2021/12/29 05:10:53;;;;;;;2.85;1.00;;;;;;;-141.50;100.00;63355.56;5093361;28;20072;-82
2021/12/29 05:13:20;;;;;;;4.45;1.10;;;;;;;-141.50;100.00;63355.56;5093580;28;20074;-82
2021/12/29 05:15:47;;;;;;;2.72;0.98;;;;;;;-141.50;100.00;63355.56;5092762;28;20071;-83
2021/12/29 05:18:14;;;;;;;4.60;1.20;;;;;;;-141.50;100.00;63355.56;5094036;28;20083;-83
2021/12/29 05:20:40;;;;;;;5.72;0.90;;;;;;;-141.50;100.00;63355.56;5097809;28;20292;-84
2021/12/29 05:23:07;;;;;;;1.75;0.80;;;;;;;-141.50;100.00;63355.56;5112609;28;20044;-84
2021/12/29 05:25:34;;;;;;;4.68;0.90;;;;;;;-141.50;100.00;63355.56;5114330;28;20035;-83
2021/12/29 05:28:00;;;;;;;5.28;1.20;;;;;;;-141.50;100.00;63355.56;5094956;28;20044;-82
2021/12/29 05:30:27;;;;;;;4.28;1.20;;;;;;;-141.50;100.00;63355.56;5093083;28;20105;-82
2021/12/29 05:32:54;;;;;;;4.25;1.08;;;;;;;-141.50;100.00;63355.56;5092740;28;20048;-82
2021/12/29 05:35:25;;;;;;;2.67;0.90;;;;;;;-141.50;100.00;63355.56;5093520;28;20404;-82
2021/12/29 05:37:54;;;;;;;4.00;1.10;;;;;;;-141.50;100.00;63355.56;5092393;28;20055;-82
2021/12/29 05:40:22;;;;;;;3.08;0.95;;;;;;;-141.50;100.00;63355.56;5090077;28;20052;-79
2021/12/29 05:42:49;;;;;;;3.35;0.95;;;;;;;-141.50;100.00;63355.56;5091756;28;20431;-82
2021/12/29 05:45:17;;;;;;;6.28;1.20;;;;;;;-141.50;100.00;63355.56;5091528;28;20052;-82
2021/12/29 05:47:44;;;;;;;2.75;0.90;;;;;;;-141.50;100.00;63355.56;5089495;28;20048;-82
2021/12/29 05:50:16;;;;;;;2.65;0.98;;;;;;;-141.50;100.00;63355.56;5091710;28;20561;-83
2021/12/29 05:52:43;;;;;;;3.83;1.10;;;;;;;-141.50;100.00;63355.56;5092312;28;20052;-83
2021/12/29 05:55:10;;;;;;;4.30;1.17;;;;;;;-141.50;100.00;63355.56;5092499;28;20080;-82
2021/12/29 05:57:38;;;;;;;3.75;1.10;;;;;;;-141.50;100.00;63355.56;5092466;28;20079;-82
2021/12/29 06:00:10;;;;;;;6.63;1.27;;;;;;;-141.50;100.00;63355.56;5090458;28;20044;-82
2021/12/29 06:02:37;;;;;;;5.63;1.27;;;;;;;-141.50;100.00;63355.56;5092042;28;20052;-82
2021/12/29 06:05:06;;;;;;;2.50;0.93;;;;;;;-141.50;100.00;63355.56;5095541;28;20109;-82
2021/12/29 06:07:34;;;;;;;2.58;1.02;;;;;;;-141.50;100.00;63355.56;5095080;28;20051;-82
2021/12/29 06:10:01;;;;;;;4.53;1.10;;;;;;;-141.50;100.00;63355.56;5094607;28;20048;-83
2021/12/29 06:12:27;;;;;;;5.90;1.20;;;;;;;-141.50;100.00;63355.56;5095769;28;20052;-82
2021/12/29 06:14:55;;;;;;;3.58;1.23;;;;;;;-141.50;100.00;63355.56;5095466;28;20491;-81
2021/12/29 06:17:21;;;;;;;3.65;1.30;;;;;;;-141.50;100.00;63355.56;5093747;28;20056;-81
2021/12/29 06:19:48;;;;;;;4.57;1.50;;;;;;;-141.50;100.00;63355.56;5093750;28;20056;-83
2021/12/29 06:22:15;;;;;;;4.30;1.10;;;;;;;-141.50;100.00;63355.56;5095412;28;20044;-82
2021/12/29 06:24:42;;;;;;;4.03;1.38;;;;;;;-141.50;100.00;63355.56;5092538;28;20052;-80
2021/12/29 06:27:09;;;;;;;6.22;1.40;;;;;;;-141.50;100.00;63355.56;5073182;28;20044;-81
2021/12/29 06:29:37;;;;;;;6.35;1.30;;;;;;;-141.50;100.00;63355.56;5068769;28;20076;-81
2021/12/29 06:32:04;;;;;;;6.10;1.25;;;;;;;-141.50;100.00;63355.56;5090571;28;20056;-80
2021/12/29 06:34:30;;;;;;;3.95;1.25;;;;;;;-141.50;100.00;63355.56;5092865;28;20048;-82
2021/12/29 06:36:58;;;;;;;4.80;1.10;;;;;;;-141.50;100.00;63355.56;5094022;28;20223;-80
2021/12/29 06:39:25;;;;;;;3.97;1.40;;;;;;;-141.50;100.00;63355.56;5092792;28;20040;-83
2021/12/29 06:41:51;;;;;;;2.55;1.10;;;;;;;-141.50;100.00;63355.56;5093054;28;20052;-82
2021/12/29 06:44:18;;;;;;;5.20;1.40;;;;;;;-141.50;100.00;63355.56;5095357;28;20125;-82
2021/12/29 06:46:44;;;;;;;2.53;1.20;;;;;;;-141.50;100.00;63355.56;5095062;28;20449;-82
2021/12/29 06:49:11;;;;;;;2.38;1.05;;;;;;;-141.50;100.00;63355.56;5094752;28;20518;-83
2021/12/29 06:51:37;;;;;;;1.90;0.93;;;;;;;-141.50;100.00;63355.56;5094252;28;20056;-82
2021/12/29 06:54:05;;;;;;;7.28;1.35;;;;;;;-141.50;100.00;63355.56;5093259;28;20070;-83
2021/12/29 06:56:32;;;;;;;13.23;1.75;;;;;;;-141.50;100.00;63355.56;5092540;28;20121;-81
2021/12/29 06:58:58;;;;;;;1.90;1.05;;;;;;;-141.50;100.00;63355.56;5091646;28;20056;-82
2021/12/29 07:01:25;;;;;;;4.75;1.50;;;;;;;-141.50;100.00;63355.56;5093812;28;20047;-84
2021/12/29 07:03:52;;;;;;;3.60;1.48;;;;;;;-141.50;100.00;63355.56;5094387;28;20572;-84
2021/12/29 07:06:18;;;;;;;4.13;1.67;;;;;;;-141.50;100.00;63355.56;5096071;28;20113;-84
2021/12/29 07:08:45;;;;;;;4.93;2.20;;;;;;;-141.50;100.00;63355.56;5093393;28;20052;-83
2021/12/29 07:11:14;;;;;;;4.85;2.20;;;;;;;-141.50;100.00;63355.56;5095354;28;20350;-82
2021/12/29 07:13:44;;;;;;;4.55;2.30;;;;;;;-141.50;100.00;63355.56;5095377;28;20047;-84
2021/12/29 07:16:11;;;;;;;4.63;2.10;;;;;;;-141.50;100.00;63355.56;5096866;28;20491;-83
2021/12/29 07:18:38;;;;;;;3.85;2.20;;;;;;;-141.50;100.00;63355.56;5092780;28;20147;-83
2021/12/29 07:21:05;;;;;;;5.15;2.15;;;;;;;-141.50;100.00;63355.56;5097381;28;20060;-84
2021/12/29 07:23:31;;;;;;;7.25;2.40;;;;;;;-141.50;100.00;63355.56;5093860;28;20068;-81
2021/12/29 07:25:58;;;;;;;8.90;2.50;;;;;;;-141.50;100.00;63355.56;5095690;28;20052;-81
2021/12/29 07:28:24;;;;;;;5.97;2.72;;;;;;;-141.50;100.00;63355.56;5094564;28;20052;-83
2021/12/29 07:30:51;;;;;;;6.68;2.80;;;;;;;-141.50;100.00;63355.56;5094258;28;20082;-83
2021/12/29 07:33:18;;;;;;;6.25;3.00;;;;;;;-141.50;100.00;63355.56;5095236;28;20289;-81
2021/12/29 07:35:44;;;;;;;8.35;2.83;;;;;;;-141.50;100.00;63355.56;5085459;28;20063;-82
2021/12/29 07:38:13;;;;;;;6.18;3.40;;;;;;;-141.50;100.00;63355.56;5093332;28;20289;-80
2021/12/29 07:40:39;;;;;;;6.30;3.60;;;;;;;-141.50;100.00;63355.56;5093163;28;20119;-83
2021/12/29 07:43:06;;;;;;;7.15;3.65;;;;;;;-141.50;100.00;63355.56;5095069;28;20543;-80
2021/12/29 07:45:32;;;;;;;8.88;3.92;;;;;;;-141.50;100.00;63355.56;5094094;28;20397;-82
2021/12/29 07:48:00;;;;;;;7.00;4.00;;;;;;;-141.50;100.00;63355.56;5093203;28;20052;-81
2021/12/29 07:50:26;;;;;;;8.20;4.53;;;;;;;-141.50;100.00;63355.56;5095737;28;20056;-81
2021/12/29 07:52:58;;;;;;;7.28;4.10;;;;;;;-141.50;100.00;63355.56;5094446;28;20098;-81
2021/12/29 07:55:24;;;;;;;8.43;4.40;;;;;;;-141.50;100.00;63355.56;5096251;28;20051;-82
2021/12/29 07:57:51;;;;;;;8.68;4.47;;;;;;;-141.50;100.00;63355.56;5094875;28;20398;-82
2021/12/29 08:00:18;;;;;;;11.32;4.50;;;;;;;-141.50;100.00;63355.56;5093581;28;20586;-79
2021/12/29 08:02:44;;;;;;;10.43;4.70;;;;;;;-141.50;100.00;63355.56;5093139;28;20051;-81
2021/12/29 08:05:12;;;;;;;11.13;4.60;;;;;;;-141.50;100.00;63355.56;5094140;28;20197;-81
2021/12/29 08:07:46;;;;;;;9.40;3.97;;;;;;;-141.50;100.00;63355.56;5091591;28;20051;-82
2021/12/29 08:10:12;;;;;;;9.95;3.75;;;;;;;-141.50;100.00;63355.56;5091209;28;20059;-81
2021/12/29 08:12:39;;;;;;;7.70;3.75;;;;;;;-141.50;100.00;63355.56;5090346;28;20565;-80
2021/12/29 08:15:06;;;;;;;6.45;3.30;;;;;;;-141.50;100.00;63355.56;5098376;28;20036;-83
2021/12/29 08:17:39;;;;;;;8.40;4.25;;;;;;;-141.50;100.00;63355.56;5097599;28;20399;-81
2021/12/29 08:20:07;;;;;;;13.35;6.65;;;;;;;-141.50;100.00;63355.56;5088939;28;20105;-81
2021/12/29 08:22:34;;;;;;;16.55;7.80;;;;;;;-141.50;100.00;63355.56;5084120;28;20079;-81
2021/12/29 08:25:00;;;;;;;19.30;8.07;;;;;;;-141.50;100.00;63355.56;5067722;28;20048;-81
2021/12/29 08:27:27;;;;;;;18.02;7.88;;;;;;;-141.50;100.00;63355.56;5082756;28;20282;-81
2021/12/29 08:29:53;;;;;;;15.48;5.97;;;;;;;-141.50;100.00;63355.56;5088241;28;20052;-82
2021/12/29 08:32:20;;;;;;;14.02;5.85;;;;;;;-141.50;100.00;63355.56;5092192;28;20067;-81
2021/12/29 08:34:47;;;;;;;9.48;4.70;;;;;;;-141.50;100.00;63355.56;5104903;28;20105;-83
2021/12/29 08:37:16;;;;;;;8.90;4.55;;;;;;;-141.50;100.00;63355.56;5111206;28;20055;-83
2021/12/29 08:39:43;;;;;;;6.13;3.50;;;;;;;-141.50;100.00;63355.56;5107152;28;20047;-82
2021/12/29 08:42:11;;;;;;;5.80;3.45;;;;;;;-141.50;100.00;63355.56;5094992;28;20055;-81
2021/12/29 08:44:42;;;;;;;6.13;3.90;;;;;;;-141.50;100.00;63355.56;5082644;28;20055;-80
2021/12/29 08:47:09;;;;;;;4.05;3.20;;;;;;;-141.50;100.00;63355.56;5082265;28;20051;-80
2021/12/29 08:49:36;;;;;;;6.15;2.90;;;;;;;-141.50;100.00;63355.56;5077092;28;20050;-81
2021/12/29 08:52:04;;;;;;;5.30;3.05;;;;;;;-141.50;100.00;63355.56;5089301;28;20049;-81
2021/12/29 08:54:31;;;;;;;4.38;2.95;;;;;;;-141.50;100.00;63355.56;5092455;28;20105;-82
2021/12/29 08:56:57;;;;;;;6.47;3.25;;;;;;;-141.50;100.00;63355.56;5094817;28;20102;-81
2021/12/29 08:59:24;;;;;;;5.85;3.58;;;;;;;-141.50;100.00;63355.56;5094923;28;20068;-79
2021/12/29 09:01:50;;;;;;;7.97;3.00;;;;;;;-141.50;100.00;63355.56;5091236;28;20048;-81
2021/12/29 09:04:17;;;;;;;4.78;3.20;;;;;;;-141.50;100.00;63355.56;5086219;28;20041;-80
2021/12/29 09:06:44;;;;;;;4.57;3.00;;;;;;;-141.50;100.00;63355.56;5088511;28;20501;-80
2021/12/29 09:09:10;;;;;;;7.57;3.33;;;;;;;-141.50;100.00;63355.56;5086660;28;20501;-80
2021/12/29 09:11:38;;;;;;;5.28;3.10;;;;;;;-141.50;100.00;63355.56;5086431;28;20048;-81
2021/12/29 09:14:05;;;;;;;5.28;3.40;;;;;;;-141.50;100.00;63355.56;5088155;28;20040;-80
2021/12/29 09:16:32;;;;;;;5.03;3.50;;;;;;;-141.50;100.00;63355.56;5095357;28;20097;-81
2021/12/29 09:18:59;;;;;;;5.82;3.45;;;;;;;-141.50;100.00;63355.56;5092935;28;20048;-80
2021/12/29 09:21:27;;;;;;;6.03;3.10;;;;;;;-141.50;100.00;63355.56;5079851;28;20052;-80
2021/12/29 09:23:54;;;;;;;4.82;3.10;;;;;;;-141.50;100.00;63355.56;5099942;28;20044;-79
2021/12/29 09:26:20;;;;;;;2.70;2.20;;;;;;;-141.50;100.00;63355.56;5103856;28;20082;-80
2021/12/29 09:28:48;;;;;;;3.75;2.42;;;;;;;-141.50;100.00;63355.56;5093246;28;20112;-81
2021/12/29 09:31:16;;;;;;;3.47;2.42;;;;;;;-141.50;100.00;63355.56;5080167;28;20052;-82
2021/12/29 09:33:43;;;;;;;3.95;2.40;;;;;;;-141.50;100.00;63355.56;5080717;28;20558;-81
2021/12/29 09:36:09;;;;;;;5.72;2.92;;;;;;;-141.50;100.00;63355.56;5095535;28;20069;-79
2021/12/29 09:38:39;;;;;;;6.28;3.10;;;;;;;-141.50;100.00;63355.56;5106877;28;20248;-81
2021/12/29 09:41:09;;;;;;;4.65;3.10;;;;;;;-141.50;100.00;63355.56;5105884;28;20048;-81
2021/12/29 09:43:37;;;;;;;4.28;3.08;;;;;;;-141.50;100.00;63355.56;5105778;28;20078;-79
2021/12/29 09:46:05;;;;;;;5.28;2.55;;;;;;;-141.50;100.00;63355.56;5104069;28;20052;-78
2021/12/29 09:48:35;;;;;;;6.75;3.00;;;;;;;-141.50;100.00;63355.56;5101264;28;20048;-79
2021/12/29 09:51:11;;;;;;;6.30;2.72;;;;;;;-141.50;100.00;63355.56;5104828;28;20068;-79
2021/12/29 09:53:39;;;;;;;4.20;2.80;;;;;;;-141.50;100.00;63355.56;5103462;28;20059;-79
2021/12/29 09:56:07;;;;;;;5.32;2.40;;;;;;;-141.50;100.00;63355.56;5105371;28;20071;-80
2021/12/29 09:58:33;;;;;;;5.00;2.45;;;;;;;-141.50;100.00;63355.56;5100698;28;20047;-79
2021/12/29 10:01:05;;;;;;;3.47;2.20;;;;;;;-141.50;100.00;63355.56;5097943;28;20044;-79
2021/12/29 10:03:33;;;;;;;3.95;2.40;;;;;;;-141.50;100.00;63355.56;5100049;28;20212;-81
2021/12/29 10:06:03;;;;;;;5.22;2.20;;;;;;;-141.50;100.00;63355.56;5105689;28;20044;-82
2021/12/29 10:08:36;;;;;;;4.25;2.17;;;;;;;-141.50;100.00;63355.56;5106650;28;20048;-82
2021/12/29 10:11:06;;;;;;;2.85;1.92;;;;;;;-141.50;100.00;63355.56;5105340;28;20499;-81
2021/12/29 10:13:35;;;;;;;5.72;2.45;;;;;;;-141.50;100.00;63355.56;5106261;28;20052;-81
2021/12/29 10:16:11;;;;;;;5.95;2.60;;;;;;;-141.50;100.00;63355.56;5105959;28;20046;-81
2021/12/29 10:18:41;;;;;;;5.13;2.80;;;;;;;-141.50;100.00;63355.56;5104019;28;20051;-82
2021/12/29 10:21:18;;;;;;;3.90;2.33;;;;;;;-141.50;100.00;63355.56;5112688;28;20073;-81
2021/12/29 10:23:50;;;;;;;4.28;2.80;;;;;;;-141.50;100.00;63355.56;5115972;28;20069;-81
2021/12/29 10:26:41;;;;;;;2.90;2.42;;;;;;;-141.50;100.00;63355.56;5115184;28;20052;-82
2021/12/29 10:29:10;;;;;;;7.97;2.60;;;;;;;-141.50;100.00;63355.56;5113178;28;20044;-82
2021/12/29 10:31:49;;;;;;;3.53;2.58;;;;;;;-141.50;100.00;63355.56;5111580;28;20320;-82
2021/12/29 10:34:22;;;;;;;4.53;2.58;;;;;;;-141.50;100.00;63355.56;5102439;28;20044;-80
2021/12/29 10:36:51;;;;;;;4.32;2.70;;;;;;;-141.50;100.00;63355.56;5102584;28;20044;-80
2021/12/29 10:39:24;;;;;;;5.53;3.38;;;;;;;-141.50;100.00;63355.56;5102367;28;20071;-81
2021/12/29 10:41:59;;;;;;;4.72;3.13;;;;;;;-141.50;100.00;63355.56;5102935;28;20074;-80
2021/12/29 10:44:25;;;;;;;4.15;2.88;;;;;;;-141.50;100.00;63355.56;5100999;28;20392;-81
2021/12/29 10:46:55;;;;;;;8.10;3.90;;;;;;;-141.50;100.00;63355.56;5101322;28;20052;-81
2021/12/29 10:49:28;;;;;;;5.57;3.55;;;;;;;-141.50;100.00;63355.56;5099631;28;20044;-82
2021/12/29 10:51:57;;;;;;;5.95;3.38;;;;;;;-141.50;100.00;63355.56;5104818;28;20055;-82
2021/12/29 10:54:26;;;;;;;4.72;3.40;;;;;;;-141.50;100.00;63355.56;5102224;28;20151;-81
2021/12/29 10:56:57;;;;;;;5.72;3.20;;;;;;;-141.50;100.00;63355.56;5103359;28;20052;-80
2021/12/29 10:59:29;;;;;;;5.03;3.20;;;;;;;-141.50;100.00;63355.56;5102571;28;20489;-83
2021/12/29 11:01:55;;;;;;;5.18;3.15;;;;;;;-141.50;100.00;63355.56;5083715;28;20087;-82
2021/12/29 11:04:24;;;;;;;4.47;2.92;;;;;;;-141.50;100.00;63355.56;5088632;28;20040;-82
2021/12/29 11:06:56;;;;;;;5.13;2.90;;;;;;;-141.50;100.00;63355.56;5100464;28;20323;-82
2021/12/29 11:09:35;;;;;;;4.50;3.00;;;;;;;-141.50;100.00;63355.56;5091515;28;20048;-82
2021/12/29 11:12:10;;;;;;;5.43;3.03;;;;;;;-141.50;100.00;63355.56;5090891;28;20048;-80
2021/12/29 11:14:42;;;;;;;3.78;2.38;;;;;;;-141.50;100.00;63355.56;5092501;28;20590;-81
2021/12/29 11:17:12;;;;;;;4.57;2.70;;;;;;;-141.50;100.00;63355.56;5088664;28;20071;-80
2021/12/29 11:19:44;;;;;;;8.27;2.97;;;;;;;-141.50;100.00;63355.56;5089106;28;20048;-80
2021/12/29 11:22:17;;;;;;;4.03;2.85;;;;;;;-141.50;100.00;63355.56;5093630;28;20052;-81